createdAt,value
2018-04-30T00:00:37.834Z,950.1
2018-04-30T00:01:39.490Z,950.1
2018-04-30T00:02:41.163Z,950.1
2018-04-30T00:03:42.810Z,950.1
2018-04-30T00:04:44.460Z,950.1
2018-04-30T00:05:46.155Z,950.2
2018-04-30T00:06:47.803Z,950.1
2018-04-30T00:07:49.461Z,950.1
2018-04-30T00:08:51.115Z,950.0
2018-04-30T00:09:52.779Z,950.0
2018-04-30T00:10:54.439Z,950.0
2018-04-30T00:11:56.098Z,949.9
2018-04-30T00:12:57.744Z,950.0
2018-04-30T00:13:59.396Z,950.0
2018-04-30T00:15:01.054Z,950.0
2018-04-30T00:16:02.709Z,949.9
2018-04-30T00:17:04.362Z,949.9
2018-04-30T00:18:06.014Z,949.8
2018-04-30T00:19:07.662Z,949.8
2018-04-30T00:20:09.320Z,949.9
2018-04-30T00:21:10.973Z,949.8
2018-04-30T00:22:12.615Z,949.8
2018-04-30T00:23:14.285Z,949.8
2018-04-30T00:24:15.933Z,949.7
2018-04-30T00:25:17.597Z,949.7
2018-04-30T00:26:19.246Z,949.6
2018-04-30T00:27:20.902Z,949.6
2018-04-30T00:28:22.551Z,949.5
2018-04-30T00:29:24.228Z,949.4
2018-04-30T00:30:25.878Z,949.3
2018-04-30T00:31:27.534Z,949.2
2018-04-30T00:32:29.194Z,949.3
2018-04-30T00:33:30.851Z,949.3
2018-04-30T00:34:32.504Z,949.3
2018-04-30T00:35:34.153Z,949.3
2018-04-30T00:36:35.817Z,949.3
2018-04-30T00:37:37.473Z,949.2
2018-04-30T00:38:39.125Z,949.2
2018-04-30T00:39:40.783Z,949.2
2018-04-30T00:40:42.437Z,949.1
2018-04-30T00:41:44.095Z,949.2
2018-04-30T00:42:45.753Z,949.1
2018-04-30T00:43:47.394Z,949.1
2018-04-30T00:44:49.042Z,949.1
2018-04-30T00:45:50.696Z,949.1
2018-04-30T00:46:52.353Z,949.2
2018-04-30T00:47:54.009Z,949.1
2018-04-30T00:48:55.659Z,949.1
2018-04-30T00:49:57.311Z,949.2
2018-04-30T00:50:58.962Z,949.2
2018-04-30T00:52:00.615Z,949.2
2018-04-30T00:53:02.281Z,949.3
2018-04-30T00:54:03.933Z,949.3
2018-04-30T00:55:05.585Z,949.3
2018-04-30T00:56:07.246Z,949.3
2018-04-30T00:57:08.900Z,949.3
2018-04-30T00:58:10.556Z,949.3
2018-04-30T00:59:12.203Z,949.4
2018-04-30T01:00:13.866Z,949.4
2018-04-30T01:01:15.521Z,949.4
2018-04-30T01:02:17.277Z,949.4
2018-04-30T01:03:18.806Z,949.4
2018-04-30T01:04:20.471Z,949.4
2018-04-30T01:05:22.120Z,949.5
2018-04-30T01:06:23.778Z,949.5
2018-04-30T01:07:25.485Z,949.5
2018-04-30T01:08:27.147Z,949.6
2018-04-30T01:09:28.799Z,949.6
2018-04-30T01:10:30.442Z,949.7
2018-04-30T01:11:32.096Z,949.6
2018-04-30T01:12:33.753Z,949.6
2018-04-30T01:13:35.401Z,949.7
2018-04-30T01:14:37.063Z,949.6
2018-04-30T01:15:38.714Z,949.6
2018-04-30T01:16:40.369Z,949.5
2018-04-30T01:17:42.014Z,949.5
2018-04-30T01:18:43.661Z,949.5
2018-04-30T01:19:45.314Z,949.6
2018-04-30T01:20:47.008Z,949.6
2018-04-30T01:21:48.659Z,949.6
2018-04-30T01:22:50.320Z,949.5
2018-04-30T01:23:51.970Z,949.5
2018-04-30T01:24:53.617Z,949.5
2018-04-30T01:25:55.290Z,949.4
2018-04-30T01:26:56.934Z,949.4
2018-04-30T01:27:58.587Z,949.4
2018-04-30T01:29:00.246Z,949.4
2018-04-30T01:30:01.903Z,949.4
2018-04-30T01:31:03.558Z,949.4
2018-04-30T01:32:05.221Z,949.4
2018-04-30T01:33:06.870Z,949.5
2018-04-30T01:34:08.528Z,949.5
2018-04-30T01:35:10.180Z,949.6
2018-04-30T01:36:11.822Z,949.6
2018-04-30T01:37:13.483Z,949.5
2018-04-30T01:38:15.128Z,949.5
2018-04-30T01:39:16.779Z,949.6
2018-04-30T01:40:18.442Z,949.5
2018-04-30T01:41:20.098Z,949.6
2018-04-30T01:42:21.751Z,949.6
2018-04-30T01:43:23.406Z,949.6
2018-04-30T01:44:25.061Z,949.6
2018-04-30T01:45:26.714Z,949.6
2018-04-30T01:46:28.366Z,949.6
2018-04-30T01:47:30.022Z,949.6
2018-04-30T01:48:31.682Z,949.6
2018-04-30T01:49:33.339Z,949.6
2018-04-30T01:50:34.990Z,949.6
2018-04-30T01:51:36.642Z,949.6
2018-04-30T01:52:38.295Z,949.6
2018-04-30T01:53:39.964Z,949.5
2018-04-30T01:54:41.629Z,949.5
2018-04-30T01:55:43.281Z,949.6
2018-04-30T02:02:05.663Z,949.6
2018-04-30T02:03:07.315Z,949.6
2018-04-30T02:04:59.221Z,949.6
2018-04-30T02:06:00.894Z,949.6
2018-04-30T02:07:52.766Z,949.6
2018-04-30T02:08:54.421Z,949.6
2018-04-30T02:10:46.392Z,949.6
2018-04-30T02:11:48.050Z,949.6
2018-04-30T02:13:39.918Z,949.5
2018-04-30T02:14:41.565Z,949.6
2018-04-30T02:16:33.497Z,949.5
2018-04-30T02:17:35.140Z,949.5
2018-04-30T02:19:27.058Z,949.5
2018-04-30T02:20:28.699Z,949.6
2018-04-30T02:22:20.647Z,949.6
2018-04-30T02:23:22.303Z,949.6
2018-04-30T02:25:14.197Z,949.7
2018-04-30T02:26:15.861Z,949.7
2018-04-30T02:28:07.991Z,949.6
2018-04-30T02:29:09.636Z,949.6
2018-04-30T02:31:01.569Z,949.7
2018-04-30T02:32:03.218Z,949.7
2018-04-30T02:33:55.131Z,949.9
2018-04-30T02:34:56.774Z,949.9
2018-04-30T02:36:48.705Z,949.9
2018-04-30T02:37:50.355Z,949.9
2018-04-30T02:39:42.307Z,950.0
2018-04-30T02:40:43.953Z,950.0
2018-04-30T02:42:35.836Z,950.0
2018-04-30T02:43:37.483Z,950.0
2018-04-30T02:45:29.403Z,950.0
2018-04-30T02:46:31.052Z,950.0
2018-04-30T02:48:23.020Z,949.9
2018-04-30T02:49:24.666Z,949.9
2018-04-30T02:50:26.339Z,949.9
2018-04-30T02:51:27.990Z,949.9
2018-04-30T02:52:29.668Z,949.9
2018-04-30T02:53:31.320Z,949.9
2018-04-30T02:54:32.978Z,949.9
2018-04-30T02:55:34.632Z,949.9
2018-04-30T02:56:36.291Z,950.0
2018-04-30T02:57:37.934Z,950.0
2018-04-30T02:58:39.596Z,950.0
2018-04-30T02:59:41.253Z,949.9
2018-04-30T03:00:42.909Z,949.9
2018-04-30T03:01:44.570Z,950.0
2018-04-30T03:02:46.247Z,949.9
2018-04-30T03:03:47.905Z,949.9
2018-04-30T03:04:49.561Z,949.9
2018-04-30T03:05:51.210Z,949.9
2018-04-30T03:06:52.864Z,949.9
2018-04-30T03:07:54.510Z,949.9
2018-04-30T03:08:56.162Z,950.0
2018-04-30T03:09:57.822Z,949.9
2018-04-30T03:10:59.476Z,949.9
2018-04-30T03:12:01.121Z,949.9
2018-04-30T03:13:02.803Z,950.0
2018-04-30T03:14:04.440Z,949.9
2018-04-30T03:15:06.102Z,949.9
2018-04-30T03:16:07.799Z,950.0
2018-04-30T03:17:09.419Z,950.0
2018-04-30T03:18:11.077Z,950.0
2018-04-30T03:19:12.724Z,950.0
2018-04-30T03:20:14.376Z,950.0
2018-04-30T03:21:16.016Z,950.1
2018-04-30T03:22:17.677Z,950.1
2018-04-30T03:23:19.323Z,950.2
2018-04-30T03:24:20.976Z,950.2
2018-04-30T03:25:22.636Z,950.3
2018-04-30T03:26:24.285Z,950.4
2018-04-30T03:27:26.003Z,950.4
2018-04-30T03:28:27.585Z,950.4
2018-04-30T03:29:29.243Z,950.4
2018-04-30T03:30:30.901Z,950.4
2018-04-30T03:31:32.554Z,950.4
2018-04-30T03:32:34.208Z,950.4
2018-04-30T03:33:35.855Z,950.5
2018-04-30T03:34:37.511Z,950.5
2018-04-30T03:35:39.156Z,950.5
2018-04-30T03:36:40.816Z,950.4
2018-04-30T03:37:42.475Z,950.4
2018-04-30T03:38:44.135Z,950.4
2018-04-30T03:39:45.781Z,950.4
2018-04-30T03:40:47.442Z,950.4
2018-04-30T03:41:49.098Z,950.6
2018-04-30T03:42:50.764Z,950.6
2018-04-30T03:43:52.414Z,950.6
2018-04-30T03:44:54.072Z,950.6
2018-04-30T03:45:55.722Z,950.7
2018-04-30T03:46:57.377Z,950.7
2018-04-30T03:47:59.023Z,950.7
2018-04-30T03:49:00.674Z,950.7
2018-04-30T03:50:02.333Z,950.7
2018-04-30T03:51:03.987Z,950.7
2018-04-30T03:52:05.657Z,950.7
2018-04-30T03:53:07.401Z,950.7
2018-04-30T03:54:08.974Z,950.6
2018-04-30T03:55:10.625Z,950.6
2018-04-30T03:56:12.289Z,950.6
2018-04-30T03:57:13.948Z,950.6
2018-04-30T03:58:15.606Z,950.7
2018-04-30T03:59:17.265Z,950.7
2018-04-30T04:00:18.922Z,950.7
2018-04-30T04:01:20.577Z,950.7
2018-04-30T04:02:22.234Z,950.7
2018-04-30T04:03:23.897Z,950.7
2018-04-30T04:04:25.554Z,950.7
2018-04-30T04:05:27.203Z,950.7
2018-04-30T04:06:28.862Z,950.7
2018-04-30T04:07:30.527Z,950.8
2018-04-30T04:08:32.184Z,950.8
2018-04-30T04:09:33.839Z,950.8
2018-04-30T04:10:35.497Z,950.8
2018-04-30T04:11:37.155Z,950.8
2018-04-30T04:12:38.825Z,950.8
2018-04-30T04:13:40.469Z,950.9
2018-04-30T04:14:42.131Z,951.0
2018-04-30T04:15:43.790Z,951.0
2018-04-30T04:16:45.510Z,951.1
2018-04-30T04:17:47.168Z,951.1
2018-04-30T04:18:48.818Z,951.3
2018-04-30T04:19:50.481Z,951.2
2018-04-30T04:20:52.142Z,951.5
2018-04-30T04:21:53.802Z,951.2
2018-04-30T04:22:55.458Z,951.4
2018-04-30T04:23:57.131Z,951.4
2018-04-30T04:24:58.766Z,951.4
2018-04-30T04:26:00.432Z,951.6
2018-04-30T04:27:02.085Z,951.5
2018-04-30T04:28:03.747Z,951.5
2018-04-30T04:29:05.401Z,951.5
2018-04-30T04:30:07.056Z,951.5
2018-04-30T04:31:08.724Z,951.5
2018-04-30T04:32:10.385Z,951.5
2018-04-30T04:33:12.045Z,951.5
2018-04-30T04:34:13.714Z,951.5
2018-04-30T04:35:15.376Z,951.4
2018-04-30T04:36:17.032Z,951.4
2018-04-30T04:37:18.692Z,951.4
2018-04-30T04:38:20.337Z,951.5
2018-04-30T04:39:21.990Z,951.4
2018-04-30T04:40:23.654Z,951.5
2018-04-30T04:41:25.315Z,951.4
2018-04-30T04:42:27.157Z,951.4
2018-04-30T04:43:28.816Z,951.5
2018-04-30T04:44:30.468Z,951.5
2018-04-30T04:45:32.129Z,951.5
2018-04-30T04:46:33.785Z,951.5
2018-04-30T04:47:35.448Z,951.5
2018-04-30T04:48:37.108Z,951.5
2018-04-30T04:49:38.765Z,951.5
2018-04-30T04:50:40.418Z,951.5
2018-04-30T04:51:42.080Z,951.5
2018-04-30T04:52:43.740Z,951.5
2018-04-30T04:53:45.394Z,951.5
2018-04-30T04:54:47.053Z,951.5
2018-04-30T04:55:48.708Z,951.5
2018-04-30T04:56:50.370Z,951.4
2018-04-30T04:57:52.028Z,951.4
2018-04-30T04:58:53.688Z,951.5
2018-04-30T04:59:55.341Z,951.5
2018-04-30T05:00:56.989Z,951.5
2018-04-30T05:01:58.651Z,951.5
2018-04-30T05:03:00.311Z,951.5
2018-04-30T05:04:01.969Z,951.5
2018-04-30T05:05:03.621Z,951.5
2018-04-30T05:06:05.280Z,951.5
2018-04-30T05:07:06.953Z,951.5
2018-04-30T05:08:08.648Z,951.5
2018-04-30T05:09:10.256Z,951.6
2018-04-30T05:10:11.920Z,951.6
2018-04-30T05:11:13.575Z,951.7
2018-04-30T05:12:15.251Z,951.7
2018-04-30T05:13:16.909Z,951.7
2018-04-30T05:14:18.569Z,951.8
2018-04-30T05:15:20.219Z,951.8
2018-04-30T05:16:21.879Z,951.8
2018-04-30T05:17:23.531Z,951.8
2018-04-30T05:18:25.185Z,951.9
2018-04-30T05:19:26.848Z,951.8
2018-04-30T05:20:28.500Z,951.9
2018-04-30T05:21:30.154Z,951.8
2018-04-30T05:22:31.815Z,951.8
2018-04-30T05:23:33.474Z,951.9
2018-04-30T05:24:35.124Z,951.9
2018-04-30T05:25:36.783Z,951.8
2018-04-30T05:26:38.433Z,952.0
2018-04-30T05:27:40.093Z,952.0
2018-04-30T05:28:41.757Z,952.0
2018-04-30T05:29:43.412Z,952.0
2018-04-30T05:30:45.078Z,952.0
2018-04-30T05:31:46.776Z,952.0
2018-04-30T05:32:48.420Z,952.0
2018-04-30T05:33:50.079Z,952.0
2018-04-30T05:34:51.729Z,952.0
2018-04-30T05:35:53.423Z,952.0
2018-04-30T05:36:55.081Z,952.0
2018-04-30T05:37:56.736Z,952.0
2018-04-30T05:38:58.405Z,952.0
2018-04-30T05:40:00.063Z,952.0
2018-04-30T05:41:01.727Z,952.0
2018-04-30T05:42:03.380Z,952.0
2018-04-30T05:43:05.031Z,952.1
2018-04-30T05:44:06.693Z,952.1
2018-04-30T05:45:08.344Z,952.2
2018-04-30T05:46:09.992Z,952.1
2018-04-30T05:47:11.694Z,952.2
2018-04-30T05:48:13.355Z,952.1
2018-04-30T05:49:15.012Z,952.2
2018-04-30T05:50:16.667Z,952.2
2018-04-30T05:51:18.325Z,952.2
2018-04-30T05:52:19.982Z,952.2
2018-04-30T05:53:21.638Z,952.2
2018-04-30T05:54:23.300Z,952.2
2018-04-30T05:55:24.952Z,952.3
2018-04-30T06:01:36.578Z,952.4
2018-04-30T06:02:38.226Z,952.4
2018-04-30T06:04:30.160Z,952.4
2018-04-30T06:05:31.810Z,952.4
2018-04-30T06:07:23.720Z,952.4
2018-04-30T06:08:25.378Z,952.4
2018-04-30T06:10:17.280Z,952.3
2018-04-30T06:11:18.939Z,952.4
2018-04-30T06:13:10.869Z,952.4
2018-04-30T06:14:12.525Z,952.5
2018-04-30T06:15:14.233Z,952.4
2018-04-30T06:16:15.882Z,952.5
2018-04-30T06:17:17.534Z,952.4
2018-04-30T06:18:19.171Z,952.3
2018-04-30T06:19:20.826Z,952.3
2018-04-30T06:20:22.490Z,952.4
2018-04-30T06:21:24.141Z,952.5
2018-04-30T06:22:25.796Z,952.4
2018-04-30T06:23:27.455Z,952.4
2018-04-30T06:24:29.109Z,952.4
2018-04-30T06:25:30.769Z,952.4
2018-04-30T06:26:32.447Z,952.5
2018-04-30T06:27:34.080Z,952.5
2018-04-30T06:28:35.747Z,952.5
2018-04-30T06:29:37.406Z,952.5
2018-04-30T06:30:39.064Z,952.4
2018-04-30T06:31:40.726Z,952.5
2018-04-30T06:32:42.381Z,952.4
2018-04-30T06:33:44.042Z,952.4
2018-04-30T06:34:45.704Z,952.4
2018-04-30T06:35:47.366Z,952.5
2018-04-30T06:36:49.019Z,952.4
2018-04-30T06:37:50.677Z,952.4
2018-04-30T06:38:52.338Z,952.4
2018-04-30T06:39:54.004Z,952.4
2018-04-30T06:40:55.667Z,952.4
2018-04-30T06:41:57.324Z,952.3
2018-04-30T06:42:58.981Z,952.4
2018-04-30T06:44:00.677Z,952.4
2018-04-30T06:45:02.340Z,952.3
2018-04-30T06:46:03.996Z,952.4
2018-04-30T06:47:05.653Z,952.4
2018-04-30T06:48:07.320Z,952.4
2018-04-30T06:49:08.971Z,952.4
2018-04-30T06:50:10.634Z,952.3
2018-04-30T06:51:12.300Z,952.4
2018-04-30T06:52:13.952Z,952.5
2018-04-30T06:53:15.614Z,952.5
2018-04-30T06:54:17.279Z,952.6
2018-04-30T06:55:18.947Z,952.6
2018-04-30T06:56:20.605Z,952.7
2018-04-30T06:57:22.266Z,952.6
2018-04-30T06:58:23.926Z,952.7
2018-04-30T06:59:25.594Z,952.7
2018-04-30T07:00:27.296Z,952.7
2018-04-30T07:01:28.935Z,952.8
2018-04-30T07:02:30.588Z,952.7
2018-04-30T07:03:32.253Z,952.8
2018-04-30T07:04:33.913Z,952.7
2018-04-30T07:05:35.572Z,952.7
2018-04-30T07:06:37.229Z,952.7
2018-04-30T07:07:38.889Z,952.8
2018-04-30T07:08:40.560Z,952.7
2018-04-30T07:09:42.419Z,952.8
2018-04-30T07:10:43.876Z,952.9
2018-04-30T07:11:45.621Z,952.9
2018-04-30T07:12:47.276Z,952.9
2018-04-30T07:13:48.948Z,953.0
2018-04-30T07:14:50.610Z,953.1
2018-04-30T07:15:52.273Z,953.1
2018-04-30T07:16:53.943Z,953.2
2018-04-30T07:17:55.612Z,953.2
2018-04-30T07:18:57.272Z,953.1
2018-04-30T07:19:58.978Z,953.1
2018-04-30T07:21:00.594Z,953.1
2018-04-30T07:22:02.256Z,953.1
2018-04-30T07:23:03.910Z,953.1
2018-04-30T07:24:05.574Z,953.1
2018-04-30T07:25:07.280Z,953.3
2018-04-30T07:26:08.935Z,953.2
2018-04-30T07:27:10.595Z,953.2
2018-04-30T07:28:12.248Z,953.3
2018-04-30T07:29:13.896Z,953.3
2018-04-30T07:30:15.561Z,953.3
2018-04-30T07:31:17.231Z,953.3
2018-04-30T07:32:18.903Z,953.3
2018-04-30T07:33:20.551Z,953.3
2018-04-30T07:34:22.258Z,953.1
2018-04-30T07:35:23.922Z,953.5
2018-04-30T07:36:25.577Z,953.4
2018-04-30T07:37:27.236Z,953.3
2018-04-30T07:38:28.883Z,953.4
2018-04-30T07:39:30.548Z,953.4
2018-04-30T07:40:32.210Z,953.3
2018-04-30T07:41:33.866Z,953.3
2018-04-30T07:42:35.522Z,953.4
2018-04-30T07:43:37.184Z,953.5
2018-04-30T07:44:38.891Z,953.5
2018-04-30T07:45:40.556Z,953.5
2018-04-30T07:46:42.219Z,953.4
2018-04-30T07:47:43.877Z,953.5
2018-04-30T07:48:45.532Z,953.5
2018-04-30T07:49:47.218Z,953.3
2018-04-30T07:50:48.852Z,953.4
2018-04-30T07:51:50.517Z,953.4
2018-04-30T07:52:52.168Z,953.5
2018-04-30T07:53:53.830Z,953.4
2018-04-30T07:54:55.507Z,953.5
2018-04-30T07:55:57.159Z,953.4
2018-04-30T07:56:58.819Z,953.4
2018-04-30T07:58:00.507Z,953.5
2018-04-30T07:59:02.133Z,953.5
2018-04-30T08:00:03.794Z,953.7
2018-04-30T08:01:05.456Z,953.7
2018-04-30T08:02:07.118Z,953.8
2018-04-30T08:03:08.778Z,953.8
2018-04-30T08:04:10.434Z,953.8
2018-04-30T08:05:12.097Z,953.8
2018-04-30T08:06:13.753Z,953.8
2018-04-30T08:07:15.421Z,953.8
2018-04-30T08:08:17.079Z,953.8
2018-04-30T08:09:18.738Z,953.8
2018-04-30T08:10:20.390Z,953.8
2018-04-30T08:11:22.068Z,953.8
2018-04-30T08:12:23.732Z,953.8
2018-04-30T08:13:25.390Z,953.7
2018-04-30T08:14:27.069Z,953.8
2018-04-30T08:15:28.744Z,954.0
2018-04-30T08:16:30.405Z,954.0
2018-04-30T08:17:32.061Z,954.1
2018-04-30T08:18:33.714Z,954.1
2018-04-30T08:19:35.381Z,954.1
2018-04-30T08:20:37.044Z,954.1
2018-04-30T08:21:38.818Z,954.0
2018-04-30T08:22:40.382Z,953.9
2018-04-30T08:23:42.041Z,953.9
2018-04-30T08:24:43.696Z,953.9
2018-04-30T08:25:45.363Z,953.8
2018-04-30T08:26:47.036Z,953.7
2018-04-30T08:27:48.693Z,953.8
2018-04-30T08:28:50.353Z,953.8
2018-04-30T08:29:52.024Z,953.8
2018-04-30T08:30:53.685Z,953.8
2018-04-30T08:31:55.358Z,953.8
2018-04-30T08:32:57.080Z,953.8
2018-04-30T08:33:58.737Z,953.9
2018-04-30T08:35:00.392Z,953.8
2018-04-30T08:36:02.053Z,953.8
2018-04-30T08:37:03.719Z,953.7
2018-04-30T08:38:05.377Z,953.7
2018-04-30T08:39:07.039Z,953.7
2018-04-30T08:40:08.687Z,953.7
2018-04-30T08:41:10.350Z,953.8
2018-04-30T08:42:12.002Z,953.8
2018-04-30T08:43:13.681Z,953.7
2018-04-30T08:44:15.335Z,953.8
2018-04-30T08:45:17.000Z,953.7
2018-04-30T08:46:18.662Z,953.7
2018-04-30T08:47:20.319Z,953.6
2018-04-30T08:48:21.993Z,953.6
2018-04-30T08:49:23.656Z,953.8
2018-04-30T08:50:25.271Z,953.7
2018-04-30T08:51:26.936Z,953.7
2018-04-30T08:52:28.601Z,953.6
2018-04-30T08:53:30.254Z,953.6
2018-04-30T08:54:31.919Z,953.5
2018-04-30T08:55:33.579Z,953.6
2018-04-30T08:56:35.292Z,953.6
2018-04-30T08:57:36.939Z,953.6
2018-04-30T08:58:38.606Z,953.6
2018-04-30T08:59:40.267Z,953.6
2018-04-30T09:00:41.961Z,953.7
2018-04-30T09:01:43.559Z,953.9
2018-04-30T09:02:45.218Z,953.9
2018-04-30T09:03:46.908Z,954.0
2018-04-30T09:04:48.574Z,954.0
2018-04-30T09:05:50.234Z,954.2
2018-04-30T09:06:51.923Z,954.1
2018-04-30T09:07:53.590Z,954.2
2018-04-30T09:08:55.245Z,954.1
2018-04-30T09:09:56.924Z,954.2
2018-04-30T09:10:58.596Z,954.1
2018-04-30T09:12:00.271Z,954.2
2018-04-30T09:13:01.921Z,954.2
2018-04-30T09:14:03.585Z,954.4
2018-04-30T09:15:05.303Z,954.3
2018-04-30T09:16:06.909Z,954.2
2018-04-30T09:17:08.560Z,954.2
2018-04-30T09:18:10.228Z,954.1
2018-04-30T09:19:12.060Z,954.1
2018-04-30T09:20:13.723Z,954.1
2018-04-30T09:21:15.405Z,954.1
2018-04-30T09:22:17.060Z,954.2
2018-04-30T09:23:18.727Z,954.1
2018-04-30T09:24:21.486Z,954.1
2018-04-30T09:25:23.143Z,954.2
2018-04-30T09:26:24.806Z,954.3
2018-04-30T09:27:26.471Z,954.3
2018-04-30T09:28:28.120Z,954.2
2018-04-30T09:29:29.800Z,954.1
2018-04-30T09:30:32.033Z,954.4
2018-04-30T09:31:33.694Z,954.5
2018-04-30T09:32:35.349Z,954.3
2018-04-30T09:33:37.007Z,954.4
2018-04-30T09:34:38.668Z,954.4
2018-04-30T09:35:40.363Z,954.4
2018-04-30T09:36:42.028Z,954.4
2018-04-30T09:37:43.683Z,954.4
2018-04-30T09:38:46.707Z,954.4
2018-04-30T09:39:48.401Z,954.7
2018-04-30T09:40:50.055Z,954.6
2018-04-30T09:41:51.723Z,954.7
2018-04-30T09:42:53.396Z,954.6
2018-04-30T09:43:55.046Z,954.7
2018-04-30T09:44:56.720Z,954.8
2018-04-30T09:45:58.381Z,954.7
2018-04-30T09:47:00.047Z,954.8
2018-04-30T09:48:01.911Z,954.8
2018-04-30T09:49:03.817Z,954.9
2018-04-30T09:50:05.481Z,954.9
2018-04-30T09:51:07.130Z,954.9
2018-04-30T09:52:08.807Z,954.7
2018-04-30T09:53:10.922Z,954.7
2018-04-30T09:54:12.536Z,954.7
2018-04-30T09:55:14.209Z,954.7
2018-04-30T10:01:16.629Z,954.4
2018-04-30T10:02:18.293Z,954.4
2018-04-30T10:04:10.184Z,954.2
2018-04-30T10:05:11.842Z,954.2
2018-04-30T10:07:04.283Z,954.2
2018-04-30T10:08:05.946Z,954.3
2018-04-30T10:09:07.618Z,954.3
2018-04-30T10:10:09.282Z,954.2
2018-04-30T10:11:10.964Z,954.1
2018-04-30T10:12:12.623Z,954.3
2018-04-30T10:13:14.291Z,954.3
2018-04-30T10:14:15.971Z,954.1
2018-04-30T10:15:17.639Z,954.1
2018-04-30T10:16:19.313Z,954.1
2018-04-30T10:17:20.974Z,954.1
2018-04-30T10:18:22.645Z,954.1
2018-04-30T10:19:24.338Z,954.2
2018-04-30T10:20:26.069Z,954.1
2018-04-30T10:21:27.732Z,954.1
2018-04-30T10:22:29.406Z,954.1
2018-04-30T10:23:31.071Z,954.1
2018-04-30T10:24:32.731Z,954.1
2018-04-30T10:25:34.398Z,954.1
2018-04-30T10:26:36.061Z,954.1
2018-04-30T10:27:37.731Z,954.2
2018-04-30T10:28:39.419Z,954.3
2018-04-30T10:29:41.071Z,954.3
2018-04-30T10:30:42.737Z,954.3
2018-04-30T10:31:44.417Z,954.3
2018-04-30T10:32:46.155Z,954.2
2018-04-30T10:33:47.813Z,954.4
2018-04-30T10:34:49.482Z,954.4
2018-04-30T10:35:51.923Z,954.3
2018-04-30T10:36:53.584Z,954.3
2018-04-30T10:37:55.277Z,954.3
2018-04-30T10:38:56.878Z,954.3
2018-04-30T10:39:58.540Z,954.3
2018-04-30T10:41:00.199Z,954.4
2018-04-30T10:42:01.861Z,954.2
2018-04-30T10:43:03.529Z,954.3
2018-04-30T10:44:05.195Z,954.3
2018-04-30T10:45:06.888Z,954.4
2018-04-30T10:46:08.651Z,954.2
2018-04-30T10:47:10.237Z,954.3
2018-04-30T10:48:11.903Z,954.3
2018-04-30T10:49:13.578Z,954.4
2018-04-30T10:50:15.269Z,954.3
2018-04-30T10:51:16.902Z,954.3
2018-04-30T10:52:18.556Z,954.4
2018-04-30T10:53:20.219Z,954.4
2018-04-30T10:54:21.887Z,954.5
2018-04-30T10:55:23.605Z,954.6
2018-04-30T10:56:25.284Z,954.4
2018-04-30T10:57:26.951Z,954.4
2018-04-30T10:58:28.608Z,954.5
2018-04-30T10:59:30.289Z,954.7
2018-04-30T11:00:31.988Z,954.6
2018-04-30T11:01:33.670Z,954.7
2018-04-30T11:02:35.391Z,954.6
2018-04-30T11:03:37.003Z,954.5
2018-04-30T11:04:38.662Z,954.5
2018-04-30T11:05:40.324Z,954.6
2018-04-30T11:06:41.991Z,954.7
2018-04-30T11:07:43.980Z,954.7
2018-04-30T11:08:45.639Z,954.9
2018-04-30T11:09:47.755Z,954.9
2018-04-30T11:10:49.440Z,954.7
2018-04-30T11:11:51.827Z,954.8
2018-04-30T11:12:53.500Z,954.8
2018-04-30T11:13:55.537Z,954.8
2018-04-30T11:14:57.204Z,954.7
2018-04-30T11:15:59.727Z,954.6
2018-04-30T11:17:01.395Z,954.6
2018-04-30T11:18:03.309Z,954.7
2018-04-30T11:19:04.977Z,954.7
2018-04-30T11:20:07.228Z,954.7
2018-04-30T11:21:08.928Z,954.7
2018-04-30T11:22:10.598Z,954.7
2018-04-30T11:23:12.266Z,954.7
2018-04-30T11:24:13.924Z,954.5
2018-04-30T11:25:17.611Z,954.5
2018-04-30T11:26:20.844Z,954.4
2018-04-30T11:27:22.500Z,954.5
2018-04-30T11:28:24.174Z,954.5
2018-04-30T11:29:25.836Z,954.5
2018-04-30T11:30:28.853Z,954.6
2018-04-30T11:31:30.761Z,954.7
2018-04-30T11:32:32.426Z,954.5
2018-04-30T11:33:34.092Z,954.9
2018-04-30T11:34:35.997Z,954.9
2018-04-30T11:35:38.346Z,955.0
2018-04-30T11:36:39.955Z,955.0
2018-04-30T11:37:41.625Z,955.0
2018-04-30T11:38:43.295Z,954.9
2018-04-30T11:39:44.961Z,955.1
2018-04-30T11:40:47.338Z,955.0
2018-04-30T11:41:49.478Z,955.1
2018-04-30T11:42:51.142Z,955.2
2018-04-30T11:43:52.819Z,955.1
2018-04-30T11:44:54.474Z,955.1
2018-04-30T11:45:56.335Z,955.1
2018-04-30T11:46:58.426Z,955.1
2018-04-30T11:48:00.545Z,955.1
2018-04-30T11:49:02.218Z,955.2
2018-04-30T11:50:03.883Z,955.3
2018-04-30T11:51:05.745Z,955.3
2018-04-30T11:52:07.449Z,955.1
2018-04-30T11:53:09.111Z,955.1
2018-04-30T11:54:12.127Z,955.1
2018-04-30T11:55:13.928Z,955.3
2018-04-30T11:56:15.603Z,955.4
2018-04-30T11:57:17.280Z,955.2
2018-04-30T11:58:18.949Z,955.2
2018-04-30T11:59:21.211Z,955.2
2018-04-30T12:00:23.596Z,955.2
2018-04-30T12:01:25.273Z,955.2
2018-04-30T12:02:26.938Z,955.2
2018-04-30T12:03:28.676Z,955.0
2018-04-30T12:04:30.802Z,955.2
2018-04-30T12:05:33.178Z,955.1
2018-04-30T12:06:35.001Z,955.1
2018-04-30T12:07:36.660Z,955.2
2018-04-30T12:08:38.330Z,955.1
2018-04-30T12:09:40.028Z,955.1
2018-04-30T12:10:42.333Z,955.1
2018-04-30T12:11:45.241Z,955.0
2018-04-30T12:12:46.943Z,955.1
2018-04-30T12:13:48.601Z,955.2
2018-04-30T12:14:53.527Z,955.2
2018-04-30T12:15:54.983Z,955.1
2018-04-30T12:16:56.653Z,955.1
2018-04-30T12:17:58.310Z,955.0
2018-04-30T12:19:00.262Z,955.1
2018-04-30T12:20:03.222Z,955.2
2018-04-30T12:21:04.882Z,955.2
2018-04-30T12:22:06.572Z,955.1
2018-04-30T12:23:08.219Z,955.1
2018-04-30T12:24:10.257Z,955.2
2018-04-30T12:25:12.926Z,955.2
2018-04-30T12:26:14.795Z,955.4
2018-04-30T12:27:16.470Z,955.4
2018-04-30T12:28:18.143Z,955.4
2018-04-30T12:29:19.848Z,955.4
2018-04-30T12:30:24.482Z,955.4
2018-04-30T12:31:25.675Z,955.6
2018-04-30T12:32:27.337Z,955.5
2018-04-30T12:33:29.009Z,955.4
2018-04-30T12:34:30.672Z,955.3
2018-04-30T12:35:33.401Z,955.4
2018-04-30T12:36:36.446Z,955.2
2018-04-30T12:37:38.118Z,955.3
2018-04-30T12:38:39.792Z,955.2
2018-04-30T12:39:41.457Z,955.2
2018-04-30T12:40:43.115Z,955.2
2018-04-30T12:41:44.774Z,955.2
2018-04-30T12:42:46.467Z,955.1
2018-04-30T12:43:48.210Z,955.2
2018-04-30T12:44:49.764Z,955.2
2018-04-30T12:45:51.428Z,955.5
2018-04-30T12:46:53.092Z,955.6
2018-04-30T12:47:54.792Z,955.4
2018-04-30T12:48:56.466Z,955.2
2018-04-30T12:49:58.127Z,955.2
2018-04-30T12:50:59.789Z,955.3
2018-04-30T12:52:01.459Z,955.3
2018-04-30T12:53:03.130Z,955.2
2018-04-30T12:54:04.851Z,955.1
2018-04-30T12:55:06.516Z,955.2
2018-04-30T12:56:08.185Z,955.1
2018-04-30T12:57:09.808Z,955.2
2018-04-30T12:58:11.481Z,955.3
2018-04-30T12:59:13.393Z,956.1
2018-04-30T13:00:15.086Z,956.7
2018-04-30T13:01:16.741Z,955.6
2018-04-30T13:02:18.508Z,956.4
2018-04-30T13:03:20.173Z,956.5
2018-04-30T13:04:21.830Z,956.4
2018-04-30T13:05:23.505Z,955.7
2018-04-30T13:06:25.168Z,955.7
2018-04-30T13:07:26.905Z,955.7
2018-04-30T13:08:28.562Z,955.6
2018-04-30T13:09:30.342Z,955.6
2018-04-30T13:10:32.051Z,955.3
2018-04-30T13:11:33.726Z,955.3
2018-04-30T13:12:35.399Z,955.3
2018-04-30T13:13:37.871Z,955.4
2018-04-30T13:14:39.537Z,955.6
2018-04-30T13:15:41.208Z,955.8
2018-04-30T13:16:43.000Z,955.6
2018-04-30T13:17:44.665Z,955.6
2018-04-30T13:18:46.387Z,955.5
2018-04-30T13:19:48.067Z,955.8
2018-04-30T13:20:49.737Z,955.5
2018-04-30T13:21:51.432Z,955.6
2018-04-30T13:22:53.104Z,955.4
2018-04-30T13:23:54.859Z,955.2
2018-04-30T13:24:56.547Z,955.3
2018-04-30T13:25:58.247Z,955.3
2018-04-30T13:26:59.928Z,955.4
2018-04-30T13:28:01.596Z,955.3
2018-04-30T13:29:03.283Z,955.5
2018-04-30T13:30:04.947Z,955.6
2018-04-30T13:31:06.634Z,956.2
2018-04-30T13:32:08.301Z,955.4
2018-04-30T13:33:10.670Z,955.4
2018-04-30T13:34:12.599Z,956.5
2018-04-30T13:35:14.255Z,955.2
2018-04-30T13:36:16.383Z,955.0
2018-04-30T13:37:18.106Z,955.0
2018-04-30T13:38:19.743Z,955.0
2018-04-30T13:39:21.448Z,955.0
2018-04-30T13:40:23.116Z,954.9
2018-04-30T13:41:25.132Z,955.1
2018-04-30T13:42:26.802Z,955.1
2018-04-30T13:43:28.662Z,955.2
2018-04-30T13:44:30.361Z,955.2
2018-04-30T13:45:32.036Z,955.2
2018-04-30T13:46:33.706Z,955.0
2018-04-30T13:47:35.371Z,955.1
2018-04-30T13:48:37.044Z,955.1